METAR Data
IDs: Format: Raw Decoded Include TAF

Data at: 1020 UTC 26 Sep 2018

KHSP 261015Z AUTO 26008KT 5SM BR BKN002 BKN048 18/18 A3017 RMK AO2 T01750175
KHSP 260955Z AUTO 26008KT 5SM BR BKN002 17/17 A3017 RMK AO2 LTG DSNT N T01740174
KHSP 260935Z AUTO 25008KT 5SM BR BKN002 18/18 A3017 RMK AO2 T01750175
KHSP 260915Z AUTO 24007KT 10SM SCT004 18/18 A3017 RMK AO2 T01750175
KHSP 260855Z AUTO 23006KT 10SM SCT002 18/18 A3017 RMK AO2 T01780178
KHSP 260835Z AUTO 24008KT 3SM BR OVC002 18/18 A3018 RMK AO2 T01770177
KHSP 260815Z AUTO 24009KT 5SM BR BKN002 18/18 A3019 RMK AO2 T01770177
KHSP 260755Z AUTO 24009KT 7SM SCT002 SCT007 18/18 A3020 RMK AO2 T01780178
KHSP 260735Z AUTO 26007KT 2SM BR SCT002 BKN005 18/18 A3021 RMK AO2 VIS 1/2V5 LTG DSNT N T01760176
KHSP 260715Z AUTO 23009KT 10SM CLR 18/18 A3021 RMK AO2 T01800180
KHSP 260655Z AUTO 22008KT 10SM CLR 18/18 A3022 RMK AO2 T01810181
KHSP 260635Z AUTO 21009KT 10SM CLR 18/18 A3021 RMK AO2 T01830183
KHSP 260615Z AUTO 24011KT 10SM CLR 18/18 A3022 RMK AO2 T01800180
KHSP 260555Z AUTO 24012G16KT 10SM CLR 18/18 A3022 RMK AO2 T01810181 10188 20177
KHSP 260535Z AUTO 23010G15KT 10SM CLR 18/18 A3022 RMK AO2 T01800180
KHSP 260515Z AUTO 21011G14KT 10SM SCT006 18/18 A3023 RMK AO2 T01790179
KHSP 260455Z AUTO 21010G15KT 170V240 4SM BR BKN002 BKN006 18/18 A3024 RMK AO2 T01780178 402020153
KHSP 260435Z AUTO 19006KT 1SM BR OVC002 18/18 A3024 RMK AO2 T01810181
KHSP 260415Z AUTO 19006KT 7SM OVC002 18/18 A3024 RMK AO2 LTG DSNT N T01800180
KHSP 260350Z AUTO 18011G14KT 1 1/4SM BR OVC002 18/18 A3024 RMK AO2 VIS 1/2V3 T01800180
KHSP 260335Z AUTO 18010KT 1 1/2SM BR OVC002 18/18 A3025 RMK AO2 T01800180
KHSP 260315Z AUTO 18012G16KT 1/4SM FG OVC002 18/18 A3026 RMK AO2 T01820182
KHSP 260255Z AUTO 18008G14KT 1/4SM FG OVC002 18/18 A3026 RMK AO2 T01820182
KHSP 260235Z AUTO 17007KT M1/4SM FG OVC002 19/19 A3027 RMK AO2 T01850185
KHSP 260215Z AUTO 17008KT 1/4SM FG OVC002 19/19 A3028 RMK AO2 T01850185
KHSP 260155Z AUTO 19008KT 1/4SM -DZ OVC002 19/19 A3029 RMK AO2 LTG DSNT W T01850185
KHSP 260135Z AUTO 19008KT M1/4SM -RA OVC002 19/19 A3029 RMK AO2 T01860186
KHSP 260115Z AUTO 18007KT M1/4SM RA OVC002 19/19 A3029 RMK AO2 T01860186
KHSP 260055Z AUTO 17007KT M1/4SM RA OVC002 19/19 A3028 RMK AO2 T01860186
KHSP 260035Z AUTO 17008KT M1/4SM +DZ OVC002 19/19 A3028 RMK AO2 T01870187
KHSP 260015Z AUTO 15004KT M1/4SM DZ OVC002 19/19 A3027 RMK AO2 LTG DSNT NW T01870187
KHSP 252355Z AUTO 18005KT M1/4SM -RA OVC002 19/19 A3027 RMK AO2 T01860186 10202 20181
KHSP 252335Z AUTO 18006KT M1/4SM DZ OVC002 19/19 A3028 RMK AO2 T01860186
KHSP 252315Z AUTO 16003KT M1/4SM +DZ OVC002 19/19 A3028 RMK AO2 T01870187
KHSP 252255Z AUTO 00000KT M1/4SM -RA OVC002 19/19 A3028 RMK AO2 T01880188
KHSP 252235Z AUTO 00000KT M1/4SM RA OVC002 19/19 A3027 RMK AO2 T01870187
KHSP 252215Z AUTO 00000KT M1/4SM FG OVC002 19/19 A3027 RMK AO2 T01910191
KHSP 252155Z AUTO 00000KT 3SM BR SCT002 BKN007 BKN110 20/20 A3027 RMK AO2 T01980198
KHSP 252135Z AUTO 24003KT 10SM SCT009 BKN110 20/20 A3028 RMK AO2 LTG DSNT N T01980198
KHSP 252115Z AUTO 23005KT 10SM SCT009 SCT016 SCT110 20/20 A3029 RMK AO2 T01970196
KHSP 252055Z AUTO 00000KT 10SM BKN007 BKN014 19/19 A3029 RMK AO2 T01940194
KHSP 252035Z AUTO 23006KT 10SM OVC007 19/19 A3029 RMK AO2 LTG DSNT SE T01910191
KHSP 252015Z AUTO 23007KT 10SM SCT003 BKN008 OVC013 20/20 A3030 RMK AO2 LTG DSNT NW T01950195
KHSP 251955Z AUTO 21004KT 4SM BR SCT003 BKN007 OVC014 19/19 A3030 RMK AO2 T01900190
KHSP 251935Z AUTO 21004KT 10SM SCT003 BKN008 OVC013 19/19 A3031 RMK AO2 T01920192
KHSP 251915Z AUTO 20004KT 4SM BR BKN003 BKN008 OVC014 19/19 A3032 RMK AO2 T01870187
KHSP 251855Z AUTO 22005KT 10SM SCT003 BKN007 OVC014 19/19 A3032 RMK AO2 T01890189
KHSP 251835Z AUTO 21005KT 1/4SM FG OVC001 18/18 A3033 RMK AO2 T01840184
KHSP 251815Z AUTO 21006KT M1/4SM -DZ OVC001 18/18 A3033 RMK AO2 T01840184
KHSP 251755Z AUTO 20006KT M1/4SM DZ OVC001 18/18 A3033 RMK AO2 60001 T01810181 10184 20170
KHSP 251735Z AUTO 18008KT 150V220 M1/4SM DZ OVC001 18/18 A3033 RMK AO2 T01830183
KHSP 251715Z AUTO 18008KT M1/4SM DZ OVC001 18/18 A3035 RMK AO2 T01800180
KHSP 251655Z AUTO 16009KT M1/4SM -DZ OVC001 18/18 A3035 RMK AO2 T01800180
KHSP 251635Z AUTO 17007KT M1/4SM DZ OVC001 18/18 A3035 RMK AO2 T01770177
KHSP 251615Z AUTO 16006KT M1/4SM +DZ OVC001 18/18 A3035 RMK AO2 T01750175
KHSP 251555Z AUTO 16007KT M1/4SM RA OVC001 18/18 A3035 RMK AO2 P0001 T01760176
KHSP 251535Z AUTO 17007KT M1/4SM DZ OVC001 18/18 A3036 RMK AO2 P0001 T01750175
KHSP 251515Z AUTO 17005KT M1/4SM +RA OVC001 17/17 A3036 RMK AO2 LTG DSNT S P0001 T01730173
KHSP 251455Z AUTO 18007KT M1/4SM DZ OVC001 17/17 A3036 RMK AO2 T01730173
KHSP 251435Z AUTO 18006KT M1/4SM -RA OVC001 17/17 A3036 RMK AO2 T01720172
KHSP 251415Z AUTO 17006KT M1/4SM -RA OVC001 17/17 A3036 RMK AO2 T01720172
KHSP 251355Z AUTO 18005KT M1/4SM DZ OVC001 17/17 A3036 RMK AO2 T01720172
KHSP 251335Z AUTO 17005KT M1/4SM +DZ OVC001 17/17 A3035 RMK AO2 LTG DSNT NW T01730173
KHSP 251315Z AUTO 17007KT M1/4SM +DZ OVC001 17/17 A3035 RMK AO2 T01720172
KHSP 251255Z AUTO 18004KT M1/4SM +DZ OVC001 17/17 A3035 RMK AO2 T01710171
KHSP 251235Z AUTO 18005KT M1/4SM +DZ OVC001 17/17 A3035 RMK AO2 T01710171
KHSP 251215Z AUTO 19005KT M1/4SM DZ OVC001 17/17 A3035 RMK AO2 T01710171
KHSP 251155Z AUTO 21005KT M1/4SM +DZ OVC001 17/17 A3034 RMK AO2 60003 70012 T01710171 10171 20156
KHSP 251135Z AUTO 20004KT M1/4SM +DZ OVC001 17/17 A3033 RMK AO2 T01700170
KHSP 251115Z AUTO 21004KT 1/4SM +DZ OVC001 17/17 A3033 RMK AO2 T01700170
KHSP 251055Z AUTO 21006KT M1/4SM +DZ OVC001 17/17 A3033 RMK AO2 LTG DSNT W T01680168
KHSP 251035Z AUTO 18004KT 1/4SM +DZ OVC001 17/17 A3033 RMK AO2 LTG DSNT W T01680168
KHSP 251015Z AUTO 19006KT 1/4SM DZ OVC001 17/17 A3033 RMK AO2 T01670167
KHSP 250955Z AUTO 18005KT 1/4SM DZ OVC001 17/17 A3032 RMK AO2 T01670167
KHSP 250935Z AUTO 20005KT M1/4SM DZ OVC001 17/17 A3032 RMK AO2 LTG DSNT W T01660166
KHSP 250915Z AUTO 20004KT 1/4SM DZ OVC001 17/17 A3033 RMK AO2 T01650165
KHSP 250900Z AUTO 19006KT M1/4SM DZ OVC001 17/17 A3033 RMK AO2 T01650165
KHSP 250835Z AUTO 17005KT M1/4SM DZ OVC001 16/16 A3033 RMK AO2 P0001 T01620162
KHSP 250815Z AUTO 16004KT 1/4SM DZ OVC001 16/16 A3033 RMK AO2 P0001 T01610161
KHSP 250755Z AUTO 16003KT M1/4SM DZ OVC001 16/16 A3033 RMK AO2 P0001 T01600160
KHSP 250735Z AUTO 14005KT M1/4SM +DZ OVC001 16/16 A3033 RMK AO2 P0001 T01600160
KHSP 250715Z AUTO 14005KT M1/4SM +DZ OVC001 16/16 A3034 RMK AO2 T01600160
KHSP 250655Z AUTO 13006KT M1/4SM +DZ OVC001 16/16 A3034 RMK AO2 T01580158
KHSP 250635Z AUTO 14006KT M1/4SM +RA OVC001 16/16 A3035 RMK AO2 LTG DSNT W T01580158
KHSP 250615Z AUTO 12006KT M1/4SM +DZ OVC001 16/16 A3035 RMK AO2 T01570157
KHSP 250555Z AUTO 13005KT M1/4SM +DZ OVC001 16/16 A3035 RMK AO2 60004 T01560156 10156 20150
KHSP 250535Z AUTO 00000KT M1/4SM +DZ OVC001 16/16 A3035 RMK AO2 T01550155
KHSP 250515Z AUTO 11005KT M1/4SM +RA OVC001 16/16 A3036 RMK AO2 T01550155
KHSP 250455Z AUTO 10008KT M1/4SM +RA OVC001 15/15 A3036 RMK AO2 P0001 T01530153 401540131
KHSP 250435Z AUTO 10007KT M1/4SM +RA OVC001 15/15 A3036 RMK AO2 P0001 T01510151
KHSP 250420Z AUTO 10006KT M1/4SM +RA OVC001 15/15 A3037 RMK AO2 T01510151
KHSP 250355Z AUTO 09005KT M1/4SM RA OVC001 15/15 A3037 RMK AO2 P0001 T01510151
KHSP 250335Z AUTO 10006KT M1/4SM +DZ OVC001 15/15 A3037 RMK AO2 T01510151
KHSP 250315Z AUTO 09005KT M1/4SM +DZ OVC001 15/15 A3037 RMK AO2 T01510151
KHSP 250255Z AUTO 09005KT M1/4SM +DZ OVC001 15/15 A3037 RMK AO2 60002 T01510151
KHSP 250235Z AUTO 08006KT M1/4SM +RA OVC001 15/15 A3037 RMK AO2 T01510151
KHSP 250215Z AUTO 09007KT M1/4SM +DZ OVC001 15/15 A3037 RMK AO2 T01500150
KHSP 250155Z AUTO 09005KT M1/4SM +DZ OVC001 15/15 A3037 RMK AO2 P0001 T01500150
KHSP 250135Z AUTO 08008KT M1/4SM +RA OVC001 15/15 A3037 RMK AO2 T01500150
KHSP 250115Z AUTO 09006KT M1/4SM +RA OVC001 15/15 A3037 RMK AO2 T01500150
KHSP 250055Z AUTO 10007KT M1/4SM +DZ OVC001 15/15 A3036 RMK AO2 P0001 T01500150
KHSP 250035Z AUTO 09007KT M1/4SM +DZ OVC001 15/15 A3036 RMK AO2 P0001 T01500150
KHSP 250015Z AUTO 09007KT M1/4SM +DZ OVC001 15/15 A3035 RMK AO2 P0001 T01500150
KHSP 242355Z AUTO 09007KT M1/4SM +RA OVC001 15/15 A3036 RMK AO2 60003 T01500150 10150 20143
KHSP 242335Z AUTO 09005KT M1/4SM +DZ OVC001 15/15 A3036 RMK AO2 T01500150
KHSP 242315Z AUTO 09007KT M1/4SM +DZ OVC001 15/15 A3035 RMK AO2 T01500150
KHSP 242255Z AUTO 09006KT M1/4SM +DZ OVC001 15/15 A3035 RMK AO2 T01500150
KHSP 242235Z AUTO 09007KT M1/4SM +DZ OVC001 15/15 A3035 RMK AO2 T01500150